Urb Green Hills, Puerto Rico
Current Conditions -  °F | °C
As of 7:56 AM on Wednesday 26 Nov 2014 (Local Time) from TJSJ Reporting Station
Light Rain Light Rain  
Wind Chill: 76°   Ceiling: 7000
Heat Index: 76°   Visibility: 10mi
Dew Point: 74°   Wind: 8mph
Humidity: 94%   Direction: 130°SE
Pressure: 30.04"   Gusts: NA
Location:  17.9849°N, 66.1175°W
Report Text: TJSJ 261156Z 13007KT 10SM -RA SCT023 SCT030 BKN070 24/23 A3004 RMK AO2 RAB54 SLP170 VIS LWR S-W P0000 60006 70027 T02440233 10244 20233 53020
Loading
Personal Weather Stations






























Interactive Weather Map New forecast layout! Learn more

10-Day Weather Forecast

Advertisements
Track Severe Weather on mobile